createdAt,value
2018-10-03T00:00:03.750Z,9.71
2018-10-03T00:01:03.706Z,7.33
2018-10-03T00:02:03.675Z,3.42
2018-10-03T00:03:03.645Z,0.85
2018-10-03T00:04:04.352Z,9.61
2018-10-03T00:05:03.583Z,10.75
2018-10-03T00:06:03.551Z,11.33
2018-10-03T00:07:03.521Z,11.33
2018-10-03T00:08:03.489Z,11.61
2018-10-03T00:09:03.460Z,9.61
2018-10-03T00:10:03.428Z,10.95
2018-10-03T00:11:03.397Z,11.80
2018-10-03T00:12:03.368Z,15.05
2018-10-03T00:13:03.335Z,13.71
2018-10-03T00:14:03.306Z,12.19
2018-10-03T00:15:03.272Z,10.57
2018-10-03T00:16:03.242Z,12.38
2018-10-03T00:17:03.210Z,12.95
2018-10-03T00:18:03.181Z,11.61
2018-10-03T00:19:03.151Z,7.81
2018-10-03T00:20:03.117Z,6.28
2018-10-03T00:21:03.086Z,5.14
2018-10-03T00:22:03.057Z,3.23
2018-10-03T00:23:03.028Z,4.95
2018-10-03T00:24:02.993Z,7.71
2018-10-03T00:25:02.963Z,6.76
2018-10-03T00:26:02.934Z,7.62
2018-10-03T00:27:02.901Z,7.04
2018-10-03T00:28:02.869Z,12.85
2018-10-03T00:29:02.838Z,16.00
2018-10-03T00:30:02.806Z,16.47
2018-10-03T00:31:02.778Z,16.28
2018-10-03T00:32:02.747Z,15.61
2018-10-03T00:33:02.712Z,14.37
2018-10-03T00:34:02.683Z,14.47
2018-10-03T00:35:02.823Z,12.57
2018-10-03T00:36:02.621Z,14.37
2018-10-03T00:37:02.590Z,13.62
2018-10-03T00:38:02.557Z,13.90
2018-10-03T00:39:02.531Z,16.56
2018-10-03T00:40:02.496Z,14.85
2018-10-03T00:41:02.464Z,16.28
2018-10-03T00:42:02.434Z,18.28
2018-10-03T00:43:02.402Z,17.43
2018-10-03T00:44:02.373Z,18.85
2018-10-03T00:45:02.338Z,17.71
2018-10-03T00:46:02.309Z,17.61
2018-10-03T00:47:02.278Z,18.95
2018-10-03T00:48:03.908Z,17.61
2018-10-03T00:49:02.214Z,19.71
2018-10-03T00:50:02.185Z,20.28
2018-10-03T00:51:03.915Z,20.18
2018-10-03T00:52:02.122Z,22.38
2018-10-03T00:53:02.091Z,25.42
2018-10-03T00:54:02.062Z,30.47
2018-10-03T00:55:02.027Z,35.23
2018-10-03T00:56:01.999Z,35.06
2018-10-03T00:57:01.966Z,33.99
2018-10-03T00:58:01.935Z,34.94
2018-10-03T00:59:01.905Z,35.13
2018-10-03T01:00:01.873Z,33.99
2018-10-03T01:01:01.842Z,34.28
2018-10-03T01:02:01.811Z,33.04
2018-10-03T01:03:01.781Z,32.95
2018-10-03T01:04:01.748Z,30.09
2018-10-03T01:05:01.718Z,27.61
2018-10-03T01:06:01.687Z,29.04
2018-10-03T01:07:01.653Z,29.33
2018-10-03T01:08:01.623Z,31.99
2018-10-03T01:09:01.591Z,32.09
2018-10-03T01:10:01.562Z,33.04
2018-10-03T01:11:01.532Z,30.76
2018-10-03T01:12:01.498Z,30.18
2018-10-03T01:13:01.472Z,30.09
2018-10-03T01:14:01.439Z,30.28
2018-10-03T01:15:01.406Z,33.61
2018-10-03T01:16:01.374Z,33.99
2018-10-03T01:17:01.343Z,30.76
2018-10-03T01:18:01.313Z,27.51
2018-10-03T01:19:01.280Z,28.85
2018-10-03T01:20:01.250Z,25.52
2018-10-03T01:21:01.219Z,23.04
2018-10-03T01:22:01.188Z,23.33
2018-10-03T01:23:01.156Z,24.28
2018-10-03T01:24:01.127Z,25.71
2018-10-03T01:25:01.099Z,26.18
2018-10-03T01:26:01.064Z,29.42
2018-10-03T01:27:01.037Z,34.18
2018-10-03T01:28:01.003Z,33.23
2018-10-03T01:29:00.970Z,34.47
2018-10-03T01:30:00.940Z,36.94
2018-10-03T01:31:00.907Z,40.87
2018-10-03T01:32:00.878Z,39.73
2018-10-03T01:33:00.844Z,40.20
2018-10-03T01:34:00.815Z,42.11
2018-10-03T01:35:00.784Z,40.68
2018-10-03T01:36:00.759Z,39.06
2018-10-03T01:37:00.722Z,37.32
2018-10-03T01:38:00.691Z,38.10
2018-10-03T01:39:00.660Z,36.87
2018-10-03T01:40:00.630Z,35.23
2018-10-03T01:41:00.599Z,31.80
2018-10-03T01:42:00.567Z,31.32
2018-10-03T01:43:00.538Z,29.33
2018-10-03T01:44:00.505Z,29.23
2018-10-03T01:45:00.474Z,32.09
2018-10-03T01:46:00.442Z,33.80
2018-10-03T01:47:00.412Z,30.58
2018-10-03T01:48:00.384Z,29.82
2018-10-03T01:49:00.352Z,28.58
2018-10-03T01:50:00.319Z,27.42
2018-10-03T01:51:00.292Z,27.81
2018-10-03T01:52:00.257Z,26.48
2018-10-03T01:53:00.226Z,24.28
2018-10-03T01:54:00.197Z,24.95
2018-10-03T01:55:00.164Z,24.29
2018-10-03T01:56:00.134Z,24.87
2018-10-03T01:57:00.103Z,23.43
2018-10-03T01:58:00.075Z,24.39
2018-10-03T01:59:00.041Z,24.58
2018-10-03T02:00:00.011Z,27.15
2018-10-03T02:00:59.979Z,29.05
2018-10-03T02:01:59.947Z,27.25
2018-10-03T02:02:59.919Z,24.76
2018-10-03T02:03:59.886Z,24.19
2018-10-03T02:04:59.856Z,26.85
2018-10-03T02:05:59.823Z,25.53
2018-10-03T02:06:59.793Z,25.05
2018-10-03T02:07:59.763Z,23.33
2018-10-03T02:08:59.731Z,22.09
2018-10-03T02:09:59.702Z,21.80
2018-10-03T02:10:59.670Z,20.47
2018-10-03T02:11:59.640Z,19.13
2018-10-03T02:12:59.608Z,19.71
2018-10-03T02:13:59.578Z,26.66
2018-10-03T02:14:59.548Z,25.72
2018-10-03T02:15:59.518Z,25.24
2018-10-03T02:16:59.495Z,23.34
2018-10-03T02:17:59.454Z,25.23
2018-10-03T02:18:59.423Z,24.77
2018-10-03T02:19:59.392Z,27.06
2018-10-03T02:20:59.366Z,25.62
2018-10-03T02:21:59.331Z,24.48
2018-10-03T02:22:59.301Z,24.77
2018-10-03T02:23:59.268Z,23.82
2018-10-03T02:24:59.240Z,22.86
2018-10-03T02:25:59.208Z,22.09
2018-10-03T02:26:59.176Z,24.77
2018-10-03T02:27:59.145Z,27.15
2018-10-03T02:28:59.119Z,25.15
2018-10-03T02:29:59.084Z,24.39
2018-10-03T02:30:59.055Z,24.09
2018-10-03T02:31:59.025Z,21.99
2018-10-03T02:32:58.992Z,20.47
2018-10-03T02:33:58.960Z,17.71
2018-10-03T02:34:58.933Z,18.95
2018-10-03T02:35:58.901Z,20.85
2018-10-03T02:36:58.869Z,22.19
2018-10-03T02:37:58.838Z,21.53
2018-10-03T02:38:58.815Z,24.77
2018-10-03T02:39:58.784Z,22.10
2018-10-03T02:40:58.745Z,20.66
2018-10-03T02:41:58.723Z,19.62
2018-10-03T02:42:58.686Z,19.90
2018-10-03T02:43:58.654Z,18.76
2018-10-03T02:44:58.623Z,17.52
2018-10-03T02:45:58.593Z,25.15
2018-10-03T02:46:58.563Z,25.91
2018-10-03T02:47:58.534Z,26.86
2018-10-03T02:48:58.498Z,24.77
2018-10-03T02:49:58.469Z,23.15
2018-10-03T02:50:58.438Z,23.43
2018-10-03T02:51:58.410Z,22.29
2018-10-03T02:52:58.376Z,24.29
2018-10-03T02:53:58.346Z,26.58
2018-10-03T02:54:58.314Z,33.82
2018-10-03T02:55:58.285Z,31.34
2018-10-03T02:56:58.254Z,31.92
2018-10-03T02:57:58.281Z,37.54
2018-10-03T02:58:58.192Z,36.87
2018-10-03T02:59:58.162Z,34.39
2018-10-03T03:00:58.131Z,32.20
2018-10-03T03:01:58.101Z,31.82
2018-10-03T03:02:58.071Z,31.82
2018-10-03T03:03:58.039Z,32.01
2018-10-03T03:04:58.009Z,35.91
2018-10-03T03:05:57.977Z,39.73
2018-10-03T03:06:58.934Z,37.25
2018-10-03T03:07:57.919Z,34.11
2018-10-03T03:08:57.905Z,33.72
2018-10-03T03:09:57.855Z,40.30
2018-10-03T03:10:57.825Z,40.77
2018-10-03T03:11:57.803Z,40.48
2018-10-03T03:12:57.762Z,41.92
2018-10-03T03:13:57.731Z,40.30
2018-10-03T03:14:57.707Z,38.96
2018-10-03T03:15:57.672Z,41.25
2018-10-03T03:16:57.640Z,42.40
2018-10-03T03:17:57.608Z,43.16
2018-10-03T03:18:57.579Z,42.58
2018-10-03T03:19:57.549Z,39.15
2018-10-03T03:20:57.516Z,35.25
2018-10-03T03:21:57.487Z,33.15
2018-10-03T03:22:57.458Z,23.43
2018-10-03T03:23:57.425Z,18.38
2018-10-03T03:24:57.398Z,12.85
2018-10-03T03:25:57.365Z,12.28
2018-10-03T03:26:57.332Z,9.90
2018-10-03T03:27:57.305Z,6.95
2018-10-03T03:28:57.275Z,7.62
2018-10-03T03:29:57.239Z,9.33
2018-10-03T03:30:57.212Z,3.52
2018-10-03T03:31:57.180Z,2.95
2018-10-03T03:32:57.885Z,3.05
2018-10-03T03:33:57.113Z,0.00
2018-10-03T03:34:57.086Z,0.00
2018-10-03T03:35:57.056Z,0.00
2018-10-03T03:36:57.031Z,0.00
2018-10-03T03:37:57.002Z,0.00
2018-10-03T03:38:56.965Z,0.00
2018-10-03T03:39:56.933Z,0.00
2018-10-03T03:40:56.902Z,0.00
2018-10-03T03:41:56.872Z,0.00
2018-10-03T03:42:56.839Z,0.00
2018-10-03T03:43:56.811Z,0.00
2018-10-03T03:44:56.779Z,0.00
2018-10-03T03:45:56.747Z,0.00
2018-10-03T03:46:56.717Z,0.00
2018-10-03T03:47:56.686Z,0.00
2018-10-03T03:48:56.654Z,0.00
2018-10-03T03:49:56.624Z,0.00
2018-10-03T03:50:56.592Z,0.00
2018-10-03T03:51:56.562Z,0.00
2018-10-03T03:52:56.533Z,0.00
2018-10-03T03:53:56.500Z,0.00
2018-10-03T03:54:56.470Z,0.00
2018-10-03T03:55:56.440Z,0.00
2018-10-03T03:56:56.408Z,0.00
2018-10-03T03:57:56.378Z,0.00
2018-10-03T03:58:56.352Z,0.00
2018-10-03T03:59:56.316Z,0.00
2018-10-03T04:00:56.284Z,0.00
2018-10-03T04:01:56.252Z,0.00
2018-10-03T04:02:56.225Z,0.00
2018-10-03T04:03:56.199Z,0.00
2018-10-03T04:04:56.162Z,0.00
2018-10-03T04:05:56.130Z,0.00
2018-10-03T04:06:56.106Z,0.00
2018-10-03T04:07:56.068Z,0.00
2018-10-03T04:08:56.036Z,0.00
2018-10-03T04:09:56.005Z,0.00
2018-10-03T04:10:55.975Z,0.00
2018-10-03T04:11:55.945Z,0.00
2018-10-03T04:12:55.917Z,0.00
2018-10-03T04:13:55.880Z,0.00
2018-10-03T04:14:55.852Z,0.00
2018-10-03T04:15:56.440Z,0.00
2018-10-03T04:16:55.788Z,0.00
2018-10-03T04:17:55.763Z,0.00
2018-10-03T04:18:55.725Z,0.00
2018-10-03T04:19:55.695Z,0.00
2018-10-03T04:20:55.662Z,0.00
2018-10-03T04:21:55.632Z,0.00
2018-10-03T04:22:55.603Z,0.00
2018-10-03T04:23:55.572Z,0.00
2018-10-03T04:24:55.540Z,0.00
2018-10-03T04:25:55.510Z,0.00
2018-10-03T04:26:55.477Z,0.00
2018-10-03T04:27:55.451Z,0.00
2018-10-03T04:28:55.415Z,0.00
2018-10-03T04:29:55.385Z,0.00
2018-10-03T04:30:55.353Z,0.00
2018-10-03T04:31:55.322Z,0.00
2018-10-03T04:32:55.291Z,0.00
2018-10-03T04:33:55.262Z,0.00
2018-10-03T04:34:55.230Z,0.00
2018-10-03T04:35:55.198Z,0.00
2018-10-03T04:36:55.167Z,0.00
2018-10-03T04:37:55.136Z,0.00
2018-10-03T04:38:55.106Z,0.00
2018-10-03T04:39:55.074Z,0.00
2018-10-03T04:40:55.041Z,0.00
2018-10-03T04:41:55.946Z,0.00
2018-10-03T04:42:54.981Z,0.00
2018-10-03T04:43:54.951Z,0.00
2018-10-03T04:44:54.919Z,0.00
2018-10-03T04:45:54.887Z,0.00
2018-10-03T04:46:54.857Z,0.00
2018-10-03T04:47:54.826Z,0.00
2018-10-03T04:48:54.848Z,0.00
2018-10-03T04:49:54.761Z,0.00
2018-10-03T04:50:54.732Z,0.00
2018-10-03T04:51:54.702Z,0.00
2018-10-03T04:52:54.670Z,0.00
2018-10-03T04:53:54.639Z,0.00
2018-10-03T04:54:54.610Z,0.00
2018-10-03T04:55:54.580Z,0.00
2018-10-03T04:56:54.545Z,0.00
2018-10-03T04:57:54.515Z,0.00
2018-10-03T04:58:54.487Z,0.00
2018-10-03T04:59:54.455Z,0.00
2018-10-03T05:01:02.342Z,0.00
2018-10-03T05:02:47.541Z,0.00
2018-10-03T05:03:47.483Z,0.00
2018-10-03T05:05:40.813Z,0.00
2018-10-03T05:06:40.746Z,0.00
2018-10-03T05:08:34.049Z,0.00
2018-10-03T05:09:34.010Z,0.00
2018-10-03T05:11:27.884Z,0.00
2018-10-03T05:12:27.764Z,0.00
2018-10-03T05:14:21.083Z,0.00
2018-10-03T05:15:21.030Z,0.00
2018-10-03T05:17:13.849Z,0.00
2018-10-03T05:18:15.428Z,0.00
2018-10-03T05:20:07.093Z,0.00
2018-10-03T05:21:07.059Z,0.00
2018-10-03T05:23:00.659Z,0.00
2018-10-03T05:24:00.617Z,0.00
2018-10-03T05:25:53.438Z,0.00
2018-10-03T05:26:53.378Z,0.00
2018-10-03T05:28:46.980Z,0.00
2018-10-03T05:29:46.932Z,0.00
2018-10-03T05:31:39.756Z,0.00
2018-10-03T05:32:39.699Z,0.00
2018-10-03T05:34:33.022Z,0.00
2018-10-03T05:35:33.603Z,0.00
2018-10-03T05:37:26.262Z,0.00
2018-10-03T05:38:26.861Z,0.00
2018-10-03T05:40:19.839Z,0.00
2018-10-03T05:41:19.785Z,0.00
2018-10-03T05:43:12.901Z,0.00
2018-10-03T05:44:12.842Z,0.00
2018-10-03T05:46:06.141Z,0.00
2018-10-03T05:47:06.744Z,0.00
2018-10-03T05:48:06.075Z,0.00
2018-10-03T05:49:06.043Z,0.00
2018-10-03T05:50:06.010Z,0.00
2018-10-03T05:51:05.981Z,0.00
2018-10-03T05:52:05.950Z,0.00
2018-10-03T05:53:05.917Z,0.00
2018-10-03T05:54:05.888Z,0.00
2018-10-03T05:55:05.858Z,0.00
2018-10-03T05:56:05.828Z,0.00
2018-10-03T05:57:05.797Z,0.00
2018-10-03T05:58:05.765Z,0.00
2018-10-03T05:59:05.734Z,0.00
2018-10-03T06:00:05.702Z,0.00
2018-10-03T06:01:05.672Z,0.00
2018-10-03T06:02:05.640Z,0.00
2018-10-03T06:03:05.612Z,0.00
2018-10-03T06:04:05.579Z,0.00
2018-10-03T06:05:05.549Z,0.00
2018-10-03T06:06:05.518Z,0.00
2018-10-03T06:07:05.490Z,0.00
2018-10-03T06:08:05.456Z,0.00
2018-10-03T06:09:05.426Z,0.00
2018-10-03T06:10:05.393Z,0.00
2018-10-03T06:11:05.365Z,0.00
2018-10-03T06:12:05.354Z,0.00
2018-10-03T06:13:05.303Z,0.00
2018-10-03T06:14:05.272Z,0.00
2018-10-03T06:15:05.239Z,0.00
2018-10-03T06:16:05.208Z,0.00
2018-10-03T06:17:05.174Z,0.00
2018-10-03T06:18:05.146Z,0.00
2018-10-03T06:19:05.115Z,0.00
2018-10-03T06:20:05.084Z,0.00
2018-10-03T06:21:05.053Z,0.00
2018-10-03T06:22:05.027Z,0.00
2018-10-03T06:23:04.995Z,0.00
2018-10-03T06:24:04.959Z,0.00
2018-10-03T06:25:04.932Z,0.00
2018-10-03T06:26:04.901Z,0.00
2018-10-03T06:27:04.870Z,0.00
2018-10-03T06:28:04.852Z,0.00
2018-10-03T06:29:04.807Z,0.00
2018-10-03T06:30:04.777Z,0.85
2018-10-03T06:31:04.745Z,1.81
2018-10-03T06:32:04.715Z,1.90
2018-10-03T06:33:04.685Z,0.28
2018-10-03T06:34:04.666Z,2.86
2018-10-03T06:35:04.624Z,2.57
2018-10-03T06:36:04.623Z,3.33
2018-10-03T06:37:04.564Z,1.52
2018-10-03T06:38:04.530Z,3.52
2018-10-03T06:39:04.499Z,2.57
2018-10-03T06:40:04.469Z,2.76
2018-10-03T06:41:04.438Z,5.62
2018-10-03T06:42:04.409Z,6.19
2018-10-03T06:43:04.381Z,7.05
2018-10-03T06:44:04.349Z,6.19
2018-10-03T06:45:04.320Z,9.05
2018-10-03T06:46:04.288Z,8.29
2018-10-03T06:47:04.257Z,8.67
2018-10-03T06:48:04.225Z,7.62
2018-10-03T06:49:04.197Z,8.57
2018-10-03T06:50:04.164Z,11.05
2018-10-03T06:51:04.133Z,9.33
2018-10-03T06:52:04.106Z,11.62
2018-10-03T06:53:04.073Z,14.76
2018-10-03T06:54:04.043Z,16.00
2018-10-03T06:55:04.752Z,16.67
2018-10-03T06:56:03.981Z,15.34
2018-10-03T06:57:03.964Z,17.72
2018-10-03T06:58:03.922Z,19.53
2018-10-03T06:59:03.892Z,17.24
2018-10-03T07:00:03.861Z,15.34
2018-10-03T07:01:03.832Z,14.48
2018-10-03T07:02:03.803Z,12.95
2018-10-03T07:03:03.772Z,15.05
2018-10-03T07:04:03.740Z,16.48
2018-10-03T07:05:03.712Z,14.76
2018-10-03T07:06:04.253Z,10.28
2018-10-03T07:07:03.647Z,9.24
2018-10-03T07:08:03.619Z,6.29
2018-10-03T07:09:03.590Z,12.19
2018-10-03T07:10:03.563Z,12.76
2018-10-03T07:11:03.527Z,13.43
2018-10-03T07:12:03.496Z,14.48
2018-10-03T07:13:03.493Z,14.29
2018-10-03T07:14:03.438Z,12.19
2018-10-03T07:15:03.411Z,9.72
2018-10-03T07:16:03.375Z,10.76
2018-10-03T07:17:04.255Z,20.39
2018-10-03T07:18:03.317Z,19.91
2018-10-03T07:19:03.287Z,27.62
2018-10-03T07:20:03.308Z,41.75
2018-10-03T07:21:03.225Z,39.75
2018-10-03T07:22:03.196Z,44.32
2018-10-03T07:23:03.165Z,48.32
2018-10-03T07:24:03.137Z,49.18
2018-10-03T07:25:03.106Z,57.03
2018-10-03T07:26:03.096Z,57.22
2018-10-03T07:27:03.045Z,57.12
2018-10-03T07:28:03.017Z,53.97
2018-10-03T07:29:02.988Z,48.32
2018-10-03T07:30:02.956Z,49.47
2018-10-03T07:31:02.928Z,48.13
2018-10-03T07:32:02.895Z,47.11
2018-10-03T07:33:02.866Z,45.29
2018-10-03T07:34:02.837Z,35.64
2018-10-03T07:35:02.808Z,23.64
2018-10-03T07:36:02.790Z,21.44
2018-10-03T07:37:02.749Z,10.58
2018-10-03T07:38:02.719Z,5.15
2018-10-03T07:39:02.689Z,2.57
2018-10-03T07:40:02.657Z,0.00
2018-10-03T07:41:02.628Z,0.00
2018-10-03T07:42:02.599Z,0.00
2018-10-03T07:43:02.569Z,0.00
2018-10-03T07:44:02.585Z,0.00
2018-10-03T07:45:02.509Z,0.00
2018-10-03T07:46:02.483Z,0.00
2018-10-03T07:47:02.450Z,0.00
2018-10-03T07:48:02.483Z,0.00
2018-10-03T07:49:02.390Z,0.00
2018-10-03T07:50:02.359Z,0.00
2018-10-03T07:51:02.329Z,0.00
2018-10-03T07:52:02.298Z,0.00
2018-10-03T07:53:02.265Z,1.23
2018-10-03T07:54:02.237Z,0.09
2018-10-03T07:55:02.209Z,3.42
2018-10-03T07:56:02.190Z,5.52
2018-10-03T07:57:02.147Z,4.10
2018-10-03T07:58:02.116Z,6.29
2018-10-03T07:59:02.106Z,1.23
2018-10-03T08:00:02.056Z,2.19
2018-10-03T08:01:02.026Z,6.19
2018-10-03T08:02:01.994Z,3.90
2018-10-03T08:03:01.964Z,7.05
2018-10-03T08:04:01.934Z,9.33
2018-10-03T08:05:01.904Z,10.57
2018-10-03T08:06:01.872Z,13.62
2018-10-03T08:07:01.842Z,13.62
2018-10-03T08:08:01.812Z,5.62
2018-10-03T08:09:01.823Z,2.28
2018-10-03T08:10:01.773Z,6.19
2018-10-03T08:11:01.721Z,18.11
2018-10-03T08:12:01.689Z,12.39
2018-10-03T08:13:01.663Z,11.15
2018-10-03T08:14:01.632Z,9.63
2018-10-03T08:15:01.612Z,10.96
2018-10-03T08:16:01.569Z,13.06
2018-10-03T08:17:01.540Z,19.82
2018-10-03T08:18:01.508Z,19.54
2018-10-03T08:19:01.481Z,22.20
2018-10-03T08:20:01.447Z,16.11
2018-10-03T08:21:01.415Z,18.96
2018-10-03T08:22:01.386Z,15.63
2018-10-03T08:23:01.360Z,16.39
2018-10-03T08:24:01.325Z,26.21
2018-10-03T08:25:01.298Z,25.16
2018-10-03T08:26:01.266Z,31.64
2018-10-03T08:27:01.236Z,28.78
2018-10-03T08:28:01.208Z,24.97
2018-10-03T08:29:01.176Z,25.07
2018-10-03T08:30:01.202Z,23.16
2018-10-03T08:31:01.117Z,20.40
2018-10-03T08:32:01.085Z,17.82
2018-10-03T08:33:01.167Z,20.20
2018-10-03T08:34:01.025Z,13.63
2018-10-03T08:35:00.997Z,12.39
2018-10-03T08:36:00.966Z,29.26
2018-10-03T08:37:00.933Z,23.44
2018-10-03T08:38:00.906Z,11.72
2018-10-03T08:39:00.877Z,0.48
2018-10-03T08:40:06.757Z,4.86
2018-10-03T08:41:00.813Z,4.28
2018-10-03T08:42:01.770Z,9.81
2018-10-03T08:43:00.756Z,9.62
2018-10-03T08:44:00.726Z,2.86
2018-10-03T08:45:00.694Z,15.72
2018-10-03T08:46:00.667Z,17.14
2018-10-03T08:47:00.634Z,10.28
2018-10-03T08:48:00.607Z,8.95
2018-10-03T08:49:00.573Z,0.00
2018-10-03T08:50:00.542Z,0.00
2018-10-03T08:51:00.512Z,0.00
2018-10-03T08:52:00.579Z,0.00
2018-10-03T08:53:00.453Z,1.71
2018-10-03T08:54:00.421Z,7.71
2018-10-03T08:55:00.392Z,0.00
2018-10-03T08:56:00.359Z,0.00
2018-10-03T08:57:00.329Z,0.00
2018-10-03T08:58:00.314Z,0.00
2018-10-03T08:59:00.268Z,0.00
2018-10-03T09:00:00.238Z,0.00
2018-10-03T09:01:00.207Z,0.00
2018-10-03T09:02:00.175Z,0.00
2018-10-03T09:03:00.145Z,0.00
2018-10-03T09:04:00.114Z,0.00
2018-10-03T09:05:00.085Z,0.00
2018-10-03T09:06:00.054Z,0.00
2018-10-03T09:07:00.022Z,0.00
2018-10-03T09:07:59.991Z,0.00
2018-10-03T09:08:59.961Z,0.00
2018-10-03T09:09:59.929Z,0.00
2018-10-03T09:10:59.899Z,0.00
2018-10-03T09:11:59.868Z,0.00
2018-10-03T09:13:00.777Z,0.00
2018-10-03T09:13:59.809Z,0.00
2018-10-03T09:15:00.274Z,0.00
2018-10-03T09:15:59.745Z,0.00
2018-10-03T09:16:59.714Z,0.00
2018-10-03T09:17:59.683Z,0.00
2018-10-03T09:18:59.654Z,0.00
2018-10-03T09:19:59.624Z,0.00
2018-10-03T09:20:59.590Z,0.00
2018-10-03T09:21:59.562Z,0.00
2018-10-03T09:22:59.530Z,0.00
2018-10-03T09:23:59.499Z,0.00
2018-10-03T09:24:59.468Z,9.34
2018-10-03T09:25:59.437Z,10.00
2018-10-03T09:26:59.408Z,10.57
2018-10-03T09:27:59.376Z,8.39
2018-10-03T09:28:59.351Z,11.34
2018-10-03T09:29:59.316Z,25.83
2018-10-03T09:30:59.285Z,20.49
2018-10-03T09:31:59.255Z,27.56
2018-10-03T09:32:59.223Z,40.24
2018-10-03T09:33:59.195Z,46.92
2018-10-03T09:34:59.166Z,46.37
2018-10-03T09:35:59.139Z,77.28
2018-10-03T09:36:59.106Z,76.33
2018-10-03T09:37:59.079Z,68.32
2018-10-03T09:38:59.046Z,69.40
2018-10-03T09:39:59.017Z,69.08
2018-10-03T09:40:58.985Z,69.46
2018-10-03T09:41:58.965Z,83.11
2018-10-03T09:42:58.936Z,85.77
2018-10-03T09:43:58.897Z,90.26
2018-10-03T09:44:58.866Z,90.40
2018-10-03T09:45:58.836Z,90.21
2018-10-03T09:46:58.809Z,86.30
2018-10-03T09:47:58.779Z,89.11
2018-10-03T09:48:58.748Z,91.50
2018-10-03T09:49:58.721Z,87.77
2018-10-03T09:50:58.693Z,91.21
2018-10-03T09:51:58.661Z,91.59
2018-10-03T09:52:58.634Z,89.97
2018-10-03T09:53:58.604Z,89.97
2018-10-03T09:54:58.576Z,96.37
2018-10-03T09:55:58.550Z,95.27
2018-10-03T09:56:58.516Z,96.94
2018-10-03T09:57:58.488Z,96.37
2018-10-03T09:58:58.461Z,97.42
2018-10-03T09:59:58.431Z,99.99
2018-10-03T10:00:58.482Z,98.94
2018-10-03T10:01:58.375Z,99.43
2018-10-03T10:02:58.346Z,98.94
2018-10-03T10:03:58.319Z,99.99
2018-10-03T10:04:58.289Z,99.99
2018-10-03T10:05:58.266Z,99.99
2018-10-03T10:06:58.234Z,99.99
2018-10-03T10:07:58.204Z,99.99
2018-10-03T10:08:58.782Z,99.99
2018-10-03T10:09:58.146Z,99.99
2018-10-03T10:10:58.172Z,99.99
2018-10-03T10:11:58.096Z,99.99
2018-10-03T10:12:58.064Z,99.99
2018-10-03T10:13:58.039Z,99.99
2018-10-03T10:14:58.008Z,99.99
2018-10-03T10:15:57.980Z,97.94
2018-10-03T10:16:57.954Z,91.78
2018-10-03T10:17:57.925Z,92.36
2018-10-03T10:18:57.899Z,99.99
2018-10-03T10:19:57.869Z,92.45
2018-10-03T10:20:57.880Z,91.07
2018-10-03T10:21:57.817Z,92.46
2018-10-03T10:22:57.786Z,83.58
2018-10-03T10:23:57.754Z,87.78
2018-10-03T10:24:57.728Z,85.49
2018-10-03T10:25:57.693Z,87.16
2018-10-03T10:26:57.671Z,91.17
2018-10-03T10:27:57.641Z,90.45
2018-10-03T10:28:57.616Z,92.07
2018-10-03T10:29:57.584Z,91.98
2018-10-03T10:30:57.557Z,95.61
2018-10-03T10:31:57.692Z,93.27
2018-10-03T10:32:57.555Z,91.74
2018-10-03T10:33:57.469Z,93.02
2018-10-03T10:34:57.439Z,93.70
2018-10-03T10:35:57.410Z,94.07
2018-10-03T10:36:57.383Z,98.37
2018-10-03T10:37:57.354Z,94.98
2018-10-03T10:38:57.325Z,99.99
2018-10-03T10:39:57.299Z,99.42
2018-10-03T10:40:57.323Z,99.99
2018-10-03T10:41:57.235Z,99.99
2018-10-03T10:42:57.208Z,99.99
2018-10-03T10:43:57.179Z,99.99
2018-10-03T10:44:57.148Z,99.99
2018-10-03T10:45:57.122Z,99.99
2018-10-03T10:46:57.095Z,99.99
2018-10-03T10:47:57.064Z,99.99
2018-10-03T10:48:57.032Z,99.99
2018-10-03T10:49:57.006Z,99.99
2018-10-03T10:50:56.977Z,99.99
2018-10-03T10:51:56.948Z,99.99
2018-10-03T10:52:56.917Z,99.99
2018-10-03T10:53:56.890Z,99.99
2018-10-03T10:54:56.865Z,99.99
2018-10-03T10:55:56.831Z,99.99
2018-10-03T10:56:56.801Z,99.99
2018-10-03T10:57:56.771Z,99.99
2018-10-03T10:58:56.746Z,99.99
2018-10-03T10:59:56.716Z,99.99
2018-10-03T11:00:57.293Z,99.99
2018-10-03T11:01:56.657Z,99.99
2018-10-03T11:02:56.628Z,99.99
2018-10-03T11:03:56.601Z,99.99
2018-10-03T11:04:56.572Z,99.99
2018-10-03T11:05:56.544Z,99.99
2018-10-03T11:06:56.515Z,99.99
2018-10-03T11:07:56.487Z,99.99
2018-10-03T11:08:56.458Z,99.99
2018-10-03T11:09:56.429Z,99.99
2018-10-03T11:10:56.401Z,99.99
2018-10-03T11:11:56.371Z,99.99
2018-10-03T11:12:56.343Z,99.99
2018-10-03T11:13:56.318Z,99.99
2018-10-03T11:14:56.288Z,99.99
2018-10-03T11:15:56.259Z,99.99
2018-10-03T11:16:56.275Z,99.99
2018-10-03T11:17:56.210Z,99.99
2018-10-03T11:18:56.175Z,99.99
2018-10-03T11:19:56.150Z,99.99
2018-10-03T11:20:56.118Z,99.99
2018-10-03T11:21:56.090Z,99.99
2018-10-03T11:22:56.062Z,99.99
2018-10-03T11:23:56.249Z,99.99
2018-10-03T11:24:56.153Z,99.99
2018-10-03T11:25:55.975Z,99.99
2018-10-03T11:26:55.948Z,99.99
2018-10-03T11:27:55.920Z,99.99
2018-10-03T11:28:55.892Z,99.99
2018-10-03T11:29:55.862Z,99.99
2018-10-03T11:30:55.836Z,99.99
2018-10-03T11:31:55.810Z,99.99
2018-10-03T11:32:55.776Z,99.99
2018-10-03T11:33:55.749Z,99.99
2018-10-03T11:34:55.721Z,99.99
2018-10-03T11:35:55.692Z,99.99
2018-10-03T11:36:55.664Z,99.99
2018-10-03T11:37:55.639Z,99.99
2018-10-03T11:38:55.605Z,99.99
2018-10-03T11:39:55.581Z,99.99
2018-10-03T11:40:55.547Z,99.99
2018-10-03T11:41:55.522Z,99.99
2018-10-03T11:42:55.493Z,99.99
2018-10-03T11:43:55.539Z,99.99
2018-10-03T11:44:55.438Z,99.99
2018-10-03T11:45:55.409Z,99.99
2018-10-03T11:46:55.381Z,99.99
2018-10-03T11:47:55.348Z,99.99
2018-10-03T11:48:55.321Z,99.99
2018-10-03T11:49:55.296Z,99.99
2018-10-03T11:50:55.265Z,99.99
2018-10-03T11:51:55.235Z,99.99
2018-10-03T11:52:55.209Z,99.99
2018-10-03T11:53:55.180Z,99.99
2018-10-03T11:54:55.154Z,99.99
2018-10-03T11:55:55.125Z,99.99
2018-10-03T11:56:55.161Z,99.99
2018-10-03T11:57:55.067Z,99.99
2018-10-03T11:58:55.043Z,99.99
2018-10-03T11:59:55.012Z,99.99
2018-10-03T12:00:54.984Z,99.99
2018-10-03T12:01:54.953Z,99.99
2018-10-03T12:02:54.964Z,99.99
2018-10-03T12:03:54.898Z,99.90
2018-10-03T12:04:54.872Z,98.85
2018-10-03T12:05:54.845Z,99.33
2018-10-03T12:06:54.817Z,99.33
2018-10-03T12:07:54.793Z,97.33
2018-10-03T12:08:54.759Z,96.56
2018-10-03T12:09:54.732Z,97.61
2018-10-03T12:10:54.706Z,96.66
2018-10-03T12:11:54.679Z,96.75
2018-10-03T12:12:54.649Z,97.04
2018-10-03T12:13:54.623Z,96.08
2018-10-03T12:14:54.593Z,97.99
2018-10-03T12:15:54.566Z,98.47
2018-10-03T12:16:54.542Z,98.85
2018-10-03T12:17:54.508Z,99.04
2018-10-03T12:18:54.485Z,99.62
2018-10-03T12:19:54.456Z,99.24
2018-10-03T12:20:54.429Z,97.71
2018-10-03T12:21:54.401Z,96.84
2018-10-03T12:22:54.374Z,95.79
2018-10-03T12:23:54.347Z,95.12
2018-10-03T12:24:54.324Z,94.74
2018-10-03T12:25:54.293Z,94.93
2018-10-03T12:26:54.267Z,92.25
2018-10-03T12:27:54.238Z,92.45
2018-10-03T12:28:54.212Z,92.54
2018-10-03T12:29:54.188Z,91.39
2018-10-03T12:30:54.157Z,91.39
2018-10-03T12:31:54.131Z,89.29
2018-10-03T12:32:54.101Z,90.06
2018-10-03T12:33:54.139Z,90.53
2018-10-03T12:34:54.048Z,91.20
2018-10-03T12:35:54.021Z,93.88
2018-10-03T12:36:53.995Z,95.51
2018-10-03T12:37:53.967Z,97.90
2018-10-03T12:38:53.940Z,99.99
2018-10-03T12:39:53.910Z,99.90
2018-10-03T12:40:53.883Z,99.99
2018-10-03T12:41:53.856Z,99.99
2018-10-03T12:42:53.830Z,99.71
2018-10-03T12:43:53.801Z,99.99
2018-10-03T12:44:53.832Z,99.99
2018-10-03T12:45:53.746Z,99.99
2018-10-03T12:46:53.720Z,99.99
2018-10-03T12:47:53.690Z,99.99
2018-10-03T12:48:53.663Z,99.99
2018-10-03T12:49:53.635Z,99.99
2018-10-03T12:50:53.609Z,99.99
2018-10-03T12:51:53.582Z,99.99
2018-10-03T12:52:53.577Z,99.99
2018-10-03T12:53:53.527Z,99.99
2018-10-03T12:54:53.592Z,99.99
2018-10-03T12:55:54.312Z,99.99
2018-10-03T12:56:53.444Z,99.99
2018-10-03T12:57:53.420Z,99.99
2018-10-03T12:58:53.392Z,99.99
2018-10-03T12:59:53.362Z,99.99
2018-10-03T13:00:53.335Z,99.99
2018-10-03T13:01:53.307Z,99.99
2018-10-03T13:02:53.280Z,99.99
2018-10-03T13:03:53.253Z,99.99
2018-10-03T13:04:53.229Z,99.99
2018-10-03T13:05:53.200Z,99.99
2018-10-03T13:06:53.170Z,99.99
2018-10-03T13:07:53.143Z,99.99
2018-10-03T13:08:53.116Z,99.99
2018-10-03T13:09:53.090Z,99.99
2018-10-03T13:10:53.064Z,99.99
2018-10-03T13:11:53.033Z,99.24
2018-10-03T13:12:53.007Z,98.95
2018-10-03T13:13:53.040Z,95.94
2018-10-03T13:14:52.960Z,93.64